Time;durP1;ratioP1;P1;durP2;ratioP2;P2;SDS_P1;SDS_P2;PMS_P1;PMS_P2;Temp;Humidity;BMP_temperature;BMP_pressure;BME280_temperature;BME280_humidity;BME280_pressure;Samples;Min_cycle;Max_cycle;Signal;HPM_P1;HPM_P2
2023/04/14 00:03:57;;;;;;;4.80;4.13;;;9.30;99.90;;;;;;10390763;28;20203;-80
2023/04/14 00:08:59;;;;;;;4.47;3.70;;;9.30;99.90;;;;;;10386086;28;20275;-80
2023/04/14 00:14:01;;;;;;;4.67;4.27;;;9.30;99.90;;;;;;10376473;28;20212;-80
2023/04/14 00:19:05;;;;;;;5.30;3.80;;;9.30;99.90;;;;;;10368999;28;20256;-80
2023/04/14 00:24:07;;;;;;;4.40;4.00;;;9.30;99.90;;;;;;10389582;28;20288;-80
2023/04/14 00:29:09;;;;;;;6.10;4.40;;;9.20;99.90;;;;;;10367567;28;20213;-80
2023/04/14 00:34:13;;;;;;;4.43;4.03;;;9.20;99.90;;;;;;10390582;28;20198;-80
2023/04/14 00:39:15;;;;;;;5.30;3.93;;;9.20;99.90;;;;;;10393387;28;20235;-80
2023/04/14 00:44:17;;;;;;;4.43;4.03;;;9.10;99.90;;;;;;10369829;28;20190;-80
2023/04/14 00:49:20;;;;;;;4.73;3.40;;;9.00;99.90;;;;;;10392755;28;20270;-80
2023/04/14 00:54:23;;;;;;;5.33;3.37;;;8.90;99.90;;;;;;10374911;28;20636;-80
2023/04/14 00:59:27;;;;;;;5.00;3.73;;;8.70;99.90;;;;;;10362227;28;20229;-80
2023/04/14 01:04:32;;;;;;;15.90;9.57;;;8.60;99.90;;;;;;10381586;28;20199;-80
2023/04/14 01:09:35;;;;;;;18.70;12.90;;;8.60;99.90;;;;;;10374306;28;20573;-80
2023/04/14 01:14:43;;;;;;;13.40;8.07;;;8.50;99.90;;;;;;10382674;28;20200;-80
2023/04/14 01:20:02;;;;;;;7.80;6.17;;;8.50;99.90;;;;;;10375109;28;20220;-80
2023/04/14 01:25:26;;;;;;;20.97;8.70;;;8.40;99.90;;;;;;10378283;28;20208;-80
2023/04/14 01:30:42;;;;;;;14.83;5.70;;;8.30;99.90;;;;;;10386407;28;20243;-80
2023/04/14 01:35:51;;;;;;;14.00;6.17;;;8.30;99.90;;;;;;10378239;28;20208;-80
2023/04/14 01:40:57;;;;;;;5.33;4.37;;;8.20;99.90;;;;;;10371157;28;20267;-80
2023/04/14 01:46:04;;;;;;;4.80;4.30;;;8.10;99.90;;;;;;10382726;28;20191;-80
2023/04/14 01:51:09;;;;;;;5.03;4.53;;;8.10;99.90;;;;;;10371718;28;20345;-80
2023/04/14 01:56:15;;;;;;;23.30;9.47;;;8.00;99.90;;;;;;10359645;28;20218;-78
2023/04/14 02:01:20;;;;;;;50.90;17.87;;;7.80;99.90;;;;;;10383656;28;20211;-79
2023/04/14 02:06:25;;;;;;;7.10;5.60;;;7.70;99.90;;;;;;10374630;28;20190;-79
2023/04/14 02:11:29;;;;;;;23.73;14.93;;;7.70;99.90;;;;;;10376474;28;20228;-80
2023/04/14 02:16:35;;;;;;;5.87;4.50;;;7.60;99.90;;;;;;10388794;28;20261;-80
2023/04/14 02:21:40;;;;;;;8.07;4.67;;;7.60;99.90;;;;;;10364847;28;20217;-80
2023/04/14 02:26:52;;;;;;;4.57;4.17;;;7.50;99.90;;;;;;10409005;28;20568;-81
2023/04/14 02:31:59;;;;;;;6.30;4.37;;;7.40;99.90;;;;;;10371648;28;20314;-80
2023/04/14 02:37:15;;;;;;;5.37;3.87;;;7.40;99.90;;;;;;10383300;28;20215;-79
2023/04/14 02:42:19;;;;;;;9.57;5.17;;;7.40;99.90;;;;;;10398732;28;20300;-81
2023/04/14 02:47:25;;;;;;;4.80;4.17;;;7.30;99.90;;;;;;10391526;28;20548;-80
2023/04/14 02:52:33;;;;;;;5.40;4.80;;;7.30;99.90;;;;;;10387490;28;20234;-80
2023/04/14 02:57:36;;;;;;;7.33;4.53;;;7.20;99.90;;;;;;10387074;28;20317;-80
2023/04/14 03:02:39;;;;;;;8.13;4.77;;;7.20;99.90;;;;;;10387219;28;20257;-80
2023/04/14 03:07:47;;;;;;;6.20;4.33;;;7.20;99.90;;;;;;10397778;28;20218;-80
2023/04/14 03:12:52;;;;;;;4.83;4.43;;;7.20;99.90;;;;;;10400267;23;20225;-81
2023/04/14 03:17:58;;;;;;;9.27;5.17;;;7.10;99.90;;;;;;10421142;28;20241;-80
2023/04/14 03:23:05;;;;;;;9.17;5.33;;;7.20;99.90;;;;;;10404052;28;20226;-81
2023/04/14 03:28:15;;;;;;;6.73;4.67;;;7.20;99.90;;;;;;10374533;28;20195;-80
2023/04/14 03:33:23;;;;;;;5.30;4.77;;;7.20;99.90;;;;;;10369564;28;20245;-81
2023/04/14 03:38:28;;;;;;;7.60;4.87;;;7.10;99.90;;;;;;10385064;28;20221;-81
2023/04/14 03:43:33;;;;;;;4.73;4.30;;;7.10;99.90;;;;;;10400284;28;20221;-80
2023/04/14 03:48:43;;;;;;;4.80;3.90;;;7.00;99.90;;;;;;10395914;28;20278;-78
2023/04/14 03:53:51;;;;;;;5.53;4.70;;;7.00;99.90;;;;;;10383960;28;20233;-81
2023/04/14 03:58:57;;;;;;;12.27;5.33;;;7.00;99.90;;;;;;10379876;28;20211;-79
2023/04/14 04:04:02;;;;;;;22.40;15.53;;;7.00;99.90;;;;;;10377247;28;20202;-79
2023/04/14 04:09:07;;;;;;;6.70;4.00;;;7.00;99.90;;;;;;10400113;28;20245;-81
2023/04/14 04:14:10;;;;;;;18.33;13.40;;;7.00;99.90;;;;;;10380912;28;20226;-82
2023/04/14 04:19:14;;;;;;;10.27;8.70;;;7.00;99.90;;;;;;10380663;28;20291;-80
2023/04/14 04:24:21;;;;;;;7.87;5.20;;;7.00;99.90;;;;;;10400895;28;20730;-82
2023/04/14 04:29:25;;;;;;;19.33;14.80;;;7.00;99.90;;;;;;10379513;28;20748;-80
2023/04/14 04:34:31;;;;;;;9.23;4.47;;;7.00;99.90;;;;;;10353252;28;20195;-82
2023/04/14 04:39:35;;;;;;;14.17;9.00;;;7.00;99.90;;;;;;10378626;28;20819;-80
2023/04/14 04:44:37;;;;;;;11.07;6.67;;;6.90;99.90;;;;;;10405155;28;20190;-82
2023/04/14 04:49:41;;;;;;;12.60;5.87;;;6.80;99.90;;;;;;10397234;28;20215;-81
2023/04/14 04:54:50;;;;;;;9.63;5.97;;;6.80;99.90;;;;;;10380147;28;20200;-80
2023/04/14 04:59:52;;;;;;;11.33;4.70;;;6.70;99.90;;;;;;10395426;28;20263;-80
2023/04/14 05:04:56;;;;;;;6.90;4.60;;;6.60;99.90;;;;;;10386944;28;20257;-80
2023/04/14 05:09:59;;;;;;;8.80;5.53;;;6.60;99.90;;;;;;10400411;28;20229;-80
2023/04/14 05:15:01;;;;;;;7.87;4.50;;;6.60;99.90;;;;;;10407752;28;20725;-79
2023/04/14 05:20:04;;;;;;;12.43;5.67;;;6.60;99.90;;;;;;10370244;28;20233;-79
2023/04/14 05:25:08;;;;;;;9.30;4.60;;;6.50;99.90;;;;;;10410838;28;20198;-78
2023/04/14 05:30:11;;;;;;;9.43;5.40;;;6.60;99.90;;;;;;10388474;28;20318;-78
2023/04/14 05:35:14;;;;;;;8.13;4.50;;;6.60;99.90;;;;;;10367991;28;20205;-78
2023/04/14 05:40:19;;;;;;;8.50;5.77;;;6.70;99.90;;;;;;10397252;28;20233;-79
2023/04/14 05:45:21;;;;;;;5.20;4.70;;;6.70;99.90;;;;;;10395860;28;20606;-79
2023/04/14 05:50:23;;;;;;;11.70;5.90;;;6.80;99.90;;;;;;10375474;28;20213;-78
2023/04/14 05:55:27;;;;;;;6.43;4.70;;;6.80;99.90;;;;;;10376093;28;20205;-85
2023/04/14 06:00:29;;;;;;;11.53;5.67;;;6.90;99.90;;;;;;10393261;28;20216;-78
2023/04/14 06:05:32;;;;;;;5.87;5.17;;;6.90;99.90;;;;;;10383629;28;20206;-80
2023/04/14 06:10:36;;;;;;;7.53;5.50;;;7.00;99.90;;;;;;10402043;28;20715;-81
2023/04/14 06:15:38;;;;;;;10.30;5.80;;;7.00;99.90;;;;;;10398063;28;20285;-81
2023/04/14 06:20:40;;;;;;;9.00;6.50;;;7.10;99.90;;;;;;10393409;28;20226;-79
2023/04/14 06:25:43;;;;;;;7.27;5.70;;;7.20;99.90;;;;;;10401578;28;20203;-81
2023/04/14 06:30:45;;;;;;;10.30;5.83;;;7.40;99.90;;;;;;10382005;28;20251;-80
2023/04/14 06:35:47;;;;;;;12.97;10.17;;;7.40;99.90;;;;;;10379443;28;20595;-81
2023/04/14 06:40:51;;;;;;;12.67;5.60;;;7.50;99.90;;;;;;10418105;28;20226;-81
2023/04/14 06:45:53;;;;;;;9.00;7.40;;;7.60;99.90;;;;;;10399600;28;20717;-81
2023/04/14 06:50:56;;;;;;;9.60;5.93;;;7.80;99.90;;;;;;10404360;28;20589;-81
2023/04/14 06:56:00;;;;;;;11.70;5.80;;;7.90;99.90;;;;;;10418347;28;20218;-81
2023/04/14 07:01:03;;;;;;;6.80;5.47;;;8.00;99.90;;;;;;10427515;28;20219;-80
2023/04/14 07:06:06;;;;;;;9.83;5.10;;;8.10;99.90;;;;;;10363365;28;20265;-79
2023/04/14 07:11:11;;;;;;;5.87;5.27;;;8.20;99.90;;;;;;10402420;28;20224;-78
2023/04/14 07:16:13;;;;;;;8.00;6.97;;;8.40;99.90;;;;;;10385721;28;20218;-80
2023/04/14 07:21:15;;;;;;;7.17;5.73;;;8.50;99.90;;;;;;10396122;28;20221;-80
2023/04/14 07:26:18;;;;;;;8.87;7.27;;;8.60;99.90;;;;;;10402091;28;20285;-80
2023/04/14 07:31:20;;;;;;;7.57;6.27;;;8.70;99.90;;;;;;10358073;28;20338;-78
2023/04/14 07:36:22;;;;;;;6.97;5.00;;;8.80;99.90;;;;;;10384113;28;20573;-78
2023/04/14 07:41:26;;;;;;;9.17;4.83;;;8.90;99.90;;;;;;10402371;28;20219;-79
2023/04/14 07:46:29;;;;;;;6.57;5.97;;;9.10;99.90;;;;;;10373880;28;20198;-78
2023/04/14 07:51:31;;;;;;;9.13;4.70;;;9.20;99.90;;;;;;10381469;28;20237;-78
2023/04/14 07:56:35;;;;;;;7.43;4.60;;;9.40;99.90;;;;;;10373345;28;20290;-79
2023/04/14 08:01:37;;;;;;;7.33;4.47;;;9.60;99.90;;;;;;10380268;28;20301;-78
2023/04/14 08:06:39;;;;;;;6.70;3.97;;;9.90;99.90;;;;;;10408315;28;20195;-78
2023/04/14 08:11:42;;;;;;;8.80;6.83;;;10.40;99.90;;;;;;10402701;28;20577;-79
2023/04/14 08:16:44;;;;;;;6.83;4.40;;;10.80;99.90;;;;;;10358619;28;20223;-80
2023/04/14 08:21:46;;;;;;;6.97;4.30;;;11.10;99.90;;;;;;10381324;28;20211;-80
2023/04/14 08:26:50;;;;;;;9.73;4.40;;;11.40;99.90;;;;;;10409492;28;20186;-80
2023/04/14 08:31:52;;;;;;;8.90;3.90;;;11.60;99.90;;;;;;10410367;28;20222;-81
2023/04/14 08:36:54;;;;;;;5.87;3.70;;;11.80;99.90;;;;;;10386567;28;20206;-78
2023/04/14 08:41:58;;;;;;;10.93;4.93;;;12.00;99.90;;;;;;10403736;28;20210;-83
2023/04/14 08:47:00;;;;;;;6.97;4.33;;;12.20;99.10;;;;;;10398461;28;20210;-83
2023/04/14 08:52:03;;;;;;;4.37;3.63;;;12.40;99.90;;;;;;10390178;28;20250;-83
2023/04/14 08:57:09;;;;;;;9.63;4.30;;;12.60;99.90;;;;;;10416110;28;20211;-82
2023/04/14 09:02:13;;;;;;;4.40;3.70;;;12.70;98.50;;;;;;10361853;28;20222;-80
2023/04/14 09:07:15;;;;;;;4.10;3.00;;;12.80;99.10;;;;;;10406754;28;20230;-80
2023/04/14 09:12:21;;;;;;;5.87;2.70;;;12.90;97.60;;;;;;10384773;28;20226;-81
2023/04/14 09:17:23;;;;;;;4.27;2.50;;;12.90;97.70;;;;;;10401295;28;20226;-83
2023/04/14 09:22:27;;;;;;;4.20;2.70;;;13.00;97.50;;;;;;10409175;28;20237;-77
2023/04/14 09:27:30;;;;;;;5.40;2.93;;;13.20;96.20;;;;;;10425712;28;20245;-83
2023/04/14 09:32:32;;;;;;;5.77;2.90;;;13.40;95.10;;;;;;10407872;28;20293;-82
2023/04/14 09:37:42;;;;;;;6.00;3.13;;;13.70;95.40;;;;;;10373239;28;20720;-83
2023/04/14 09:42:46;;;;;;;5.20;3.13;;;14.10;95.10;;;;;;10402143;28;20211;-81
2023/04/14 09:47:48;;;;;;;3.80;2.87;;;14.40;95.40;;;;;;10379205;28;20191;-80
2023/04/14 09:52:50;;;;;;;4.00;2.47;;;14.70;94.20;;;;;;10387422;28;20222;-80
2023/04/14 09:57:54;;;;;;;3.03;2.50;;;15.00;93.40;;;;;;10389760;28;20204;-80
2023/04/14 10:02:59;;;;;;;5.83;3.07;;;15.20;92.00;;;;;;10384061;28;20251;-79
2023/04/14 10:08:02;;;;;;;6.23;3.03;;;15.40;91.80;;;;;;10398350;28;20191;-81
2023/04/14 10:13:06;;;;;;;3.30;3.00;;;15.60;91.80;;;;;;10378542;28;20247;-79
2023/04/14 10:18:08;;;;;;;5.67;2.80;;;15.50;90.70;;;;;;10338452;28;20255;-80
2023/04/14 10:23:10;;;;;;;4.13;2.73;;;15.20;88.20;;;;;;10327324;28;20214;-80
2023/04/14 10:28:14;;;;;;;5.77;3.17;;;14.90;88.80;;;;;;10382156;28;20205;-80
2023/04/14 10:33:17;;;;;;;5.03;3.47;;;14.60;90.80;;;;;;10397994;28;20215;-79
2023/04/14 10:38:19;;;;;;;3.37;3.00;;;14.40;84.40;;;;;;10379539;28;21041;-79
2023/04/14 10:43:27;;;;;;;5.10;3.23;;;14.10;90.40;;;;;;10398732;28;20215;-79
2023/04/14 10:48:33;;;;;;;3.67;3.00;;;14.10;87.10;;;;;;10396053;28;20286;-80
2023/04/14 10:53:46;;;;;;;6.07;3.00;;;14.10;87.50;;;;;;10410205;28;20277;-80
2023/04/14 10:58:56;;;;;;;5.50;3.57;;;13.90;89.50;;;;;;10381762;28;20214;-82
2023/04/14 11:04:16;;;;;;;7.30;3.30;;;13.70;90.70;;;;;;10416747;28;20199;-82
2023/04/14 11:09:26;;;;;;;7.20;3.30;;;13.60;91.20;;;;;;10337687;28;20233;-82
2023/04/14 11:14:32;;;;;;;5.57;3.23;;;13.70;88.50;;;;;;10399040;28;20207;-82
2023/04/14 11:19:34;;;;;;;5.33;2.80;;;13.70;90.70;;;;;;10390285;28;20221;-82
2023/04/14 11:24:37;;;;;;;2.97;2.67;;;13.70;91.10;;;;;;10406222;28;20293;-82
2023/04/14 11:29:47;;;;;;;3.70;2.97;;;13.60;89.80;;;;;;10417412;28;20313;-81
2023/04/14 11:34:50;;;;;;;5.27;2.80;;;13.60;91.40;;;;;;10373575;28;20198;-81
2023/04/14 11:39:52;;;;;;;4.27;3.10;;;13.60;89.10;;;;;;10390949;28;20687;-82
2023/04/14 11:44:58;;;;;;;5.40;2.87;;;13.70;88.90;;;;;;10410795;28;20175;-79
2023/04/14 11:50:05;;;;;;;5.87;2.83;;;13.80;88.10;;;;;;10347501;28;20215;-81
2023/04/14 11:55:08;;;;;;;3.53;2.70;;;13.80;82.20;;;;;;10394771;28;20198;-82
2023/04/14 12:00:13;;;;;;;4.37;3.97;;;13.70;86.60;;;;;;10384938;28;20223;-81
2023/04/14 12:05:21;;;;;;;3.80;2.57;;;13.60;88.90;;;;;;10396201;28;20309;-82
2023/04/14 12:10:23;;;;;;;3.00;2.70;;;13.50;87.30;;;;;;10396104;28;20230;-81
2023/04/14 12:15:27;;;;;;;3.83;2.77;;;13.60;87.90;;;;;;10383569;28;20217;-80
2023/04/14 12:20:41;;;;;;;4.43;3.00;;;13.60;87.40;;;;;;10393775;28;20737;-82
2023/04/14 12:25:43;;;;;;;2.93;2.73;;;13.50;88.50;;;;;;10385743;28;20199;-82
2023/04/14 12:30:53;;;;;;;6.03;3.43;;;13.40;89.80;;;;;;10382551;28;20223;-82
2023/04/14 12:36:01;;;;;;;3.73;2.67;;;13.40;90.30;;;;;;10410727;28;20198;-81
2023/04/14 12:41:04;;;;;;;4.13;3.13;;;13.30;90.50;;;;;;10386423;28;20219;-82
2023/04/14 12:46:07;;;;;;;2.90;2.70;;;13.20;87.50;;;;;;10398429;28;20667;-81
2023/04/14 12:51:11;;;;;;;5.17;3.87;;;13.20;88.50;;;;;;10392676;28;20268;-81
2023/04/14 12:56:16;;;;;;;2.80;2.47;;;13.10;84.70;;;;;;10391681;28;20204;-80
2023/04/14 13:01:20;;;;;;;4.33;2.50;;;13.10;84.80;;;;;;10417535;28;20222;-82
2023/04/14 13:06:23;;;;;;;4.47;2.90;;;13.20;86.90;;;;;;10411805;28;20207;-82
2023/04/14 13:11:25;;;;;;;3.50;3.10;;;13.20;86.20;;;;;;10388178;28;20270;-82
2023/04/14 13:16:29;;;;;;;5.03;3.13;;;13.30;87.10;;;;;;10384402;28;20714;-81
2023/04/14 13:21:31;;;;;;;3.97;2.70;;;13.40;83.90;;;;;;10393353;28;20219;-83
2023/04/14 13:26:33;;;;;;;3.57;2.60;;;13.30;87.70;;;;;;10395925;28;20201;-82
2023/04/14 13:32:08;;;;;;;3.37;2.43;;;13.30;87.40;;;;;;10404526;28;20255;-83
2023/04/14 13:37:10;;;;;;;2.63;2.43;;;13.40;85.00;;;;;;10379391;28;20620;-82
2023/04/14 13:42:13;;;;;;;2.77;2.50;;;13.40;90.40;;;;;;10391736;28;20679;-81
2023/04/14 13:47:17;;;;;;;3.60;2.53;;;13.40;92.50;;;;;;10355307;28;20284;-80
2023/04/14 13:52:19;;;;;;;2.57;2.33;;;13.20;92.10;;;;;;10383558;28;20211;-80
2023/04/14 13:57:21;;;;;;;2.80;2.60;;;13.10;90.60;;;;;;10403701;28;20199;-80
2023/04/14 14:02:25;;;;;;;4.03;2.70;;;13.00;87.40;;;;;;10381723;28;20703;-82
2023/04/14 14:07:27;;;;;;;3.30;2.90;;;13.00;85.00;;;;;;10398901;28;20253;-81
2023/04/14 14:12:31;;;;;;;4.50;2.60;;;13.20;76.90;;;;;;10412535;28;20318;-81
2023/04/14 14:17:35;;;;;;;3.20;2.63;;;13.30;76.40;;;;;;10355136;28;20248;-82
2023/04/14 14:22:38;;;;;;;2.77;2.57;;;13.30;81.30;;;;;;10415957;28;20218;-82
2023/04/14 14:27:40;;;;;;;2.57;2.40;;;13.30;83.80;;;;;;10395985;28;20203;-81
2023/04/14 14:32:43;;;;;;;2.70;2.40;;;13.30;81.60;;;;;;10388085;28;20284;-82
2023/04/14 14:37:46;;;;;;;2.73;2.17;;;13.30;80.00;;;;;;10398863;28;20214;-81
2023/04/14 14:42:48;;;;;;;2.30;2.10;;;13.30;77.70;;;;;;10398426;28;20650;-82
2023/04/14 14:47:51;;;;;;;4.90;2.50;;;13.30;83.90;;;;;;10393854;28;20206;-81
2023/04/14 14:52:55;;;;;;;3.60;3.30;;;13.30;80.80;;;;;;10410756;28;20207;-81
2023/04/14 14:57:57;;;;;;;3.10;2.70;;;13.30;76.60;;;;;;10385326;28;20593;-82
2023/04/14 15:03:01;;;;;;;4.60;2.70;;;13.40;74.30;;;;;;10415219;28;20299;-81
2023/04/14 15:08:03;;;;;;;3.77;2.23;;;13.50;77.50;;;;;;10366818;28;20194;-81
2023/04/14 15:13:05;;;;;;;2.40;2.20;;;13.70;71.20;;;;;;10413243;28;20223;-81
2023/04/14 15:18:09;;;;;;;4.20;3.20;;;13.60;77.60;;;;;;10379710;28;20752;-82
2023/04/14 15:23:11;;;;;;;3.13;2.93;;;13.60;74.20;;;;;;10412860;28;20222;-82
2023/04/14 15:28:13;;;;;;;6.20;2.87;;;13.60;84.10;;;;;;10383025;28;20199;-83
2023/04/14 15:33:16;;;;;;;2.60;2.40;;;13.60;81.30;;;;;;10380157;28;20705;-80
2023/04/14 15:38:19;;;;;;;2.03;1.73;;;13.60;78.20;;;;;;10433734;28;20239;-80
2023/04/14 15:43:21;;;;;;;4.03;3.30;;;13.70;80.10;;;;;;10393913;28;20596;-81
2023/04/14 15:48:24;;;;;;;3.80;2.93;;;13.70;79.10;;;;;;10343472;28;20219;-80
2023/04/14 15:53:26;;;;;;;3.10;2.40;;;13.60;72.80;;;;;;10387076;28;20536;-82
2023/04/14 15:58:28;;;;;;;2.50;2.30;;;13.60;69.80;;;;;;10361615;28;20208;-82
2023/04/14 16:03:32;;;;;;;3.10;2.90;;;13.60;78.50;;;;;;10382467;28;20286;-83
2023/04/14 16:08:35;;;;;;;2.60;2.40;;;13.50;81.80;;;;;;10371190;28;20196;-80
2023/04/14 16:13:37;;;;;;;3.23;2.70;;;13.40;86.00;;;;;;10382596;28;20258;-81
2023/04/14 16:18:41;;;;;;;4.30;2.23;;;13.30;79.90;;;;;;10394035;28;20223;-81
2023/04/14 16:23:43;;;;;;;5.33;4.13;;;13.20;70.30;;;;;;10367549;28;20195;-82
2023/04/14 16:28:45;;;;;;;5.33;2.10;;;13.20;80.50;;;;;;10382454;28;20196;-81
2023/04/14 16:33:49;;;;;;;2.93;2.70;;;13.10;73.70;;;;;;10386066;28;20245;-81
2023/04/14 16:38:51;;;;;;;3.40;2.60;;;13.20;74.40;;;;;;10375498;28;20223;-82
2023/04/14 16:43:53;;;;;;;2.90;2.70;;;13.20;78.10;;;;;;10378938;28;20225;-82
2023/04/14 16:48:56;;;;;;;2.70;2.50;;;13.20;80.60;;;;;;10383489;28;20265;-82
2023/04/14 16:54:01;;;;;;;9.53;3.40;;;13.10;75.40;;;;;;10392449;28;20667;-80
2023/04/14 16:59:05;;;;;;;4.40;2.20;;;13.10;78.30;;;;;;10396340;28;20230;-82
2023/04/14 17:04:09;;;;;;;2.90;2.70;;;13.10;82.70;;;;;;10391941;28;20209;-83
2023/04/14 17:09:11;;;;;;;4.80;2.07;;;13.00;87.30;;;;;;10376144;28;20223;-80
2023/04/14 17:14:14;;;;;;;3.90;2.60;;;12.90;87.10;;;;;;10394138;28;20726;-81
2023/04/14 17:19:18;;;;;;;4.03;3.00;;;12.90;90.00;;;;;;10414435;28;20229;-82
2023/04/14 17:24:20;;;;;;;3.50;3.00;;;12.80;91.10;;;;;;10400645;28;20198;-81
2023/04/14 17:29:22;;;;;;;3.40;2.60;;;12.70;92.50;;;;;;10383509;28;20211;-84
2023/04/14 17:34:25;;;;;;;5.10;3.40;;;12.70;93.10;;;;;;10398274;28;20210;-84
2023/04/14 17:39:28;;;;;;;2.80;2.30;;;12.60;91.40;;;;;;10398135;28;20250;-83
2023/04/14 17:44:32;;;;;;;3.20;3.00;;;12.50;92.10;;;;;;10409523;28;20201;-82
2023/04/14 17:49:36;;;;;;;5.60;3.67;;;12.50;92.70;;;;;;10416539;28;20222;-84
2023/04/14 17:54:51;;;;;;;3.37;3.07;;;12.40;91.70;;;;;;10413792;28;20201;-81
2023/04/14 17:59:53;;;;;;;4.10;3.60;;;12.40;92.20;;;;;;10367092;28;20464;-81
2023/04/14 18:04:57;;;;;;;5.17;3.90;;;12.30;94.30;;;;;;10396352;28;20199;-81
2023/04/14 18:09:59;;;;;;;16.53;15.07;;;12.30;96.10;;;;;;10415968;28;20269;-80
2023/04/14 18:15:01;;;;;;;11.47;10.00;;;12.20;82.80;;;;;;10384600;28;20255;-80
2023/04/14 18:20:09;;;;;;;11.07;9.77;;;12.20;83.10;;;;;;10334325;28;20254;-79
2023/04/14 18:25:11;;;;;;;9.90;8.47;;;12.20;81.30;;;;;;10345526;28;21315;-82
2023/04/14 18:30:14;;;;;;;6.77;5.90;;;11.90;82.50;;;;;;10380842;28;20287;-83
2023/04/14 18:35:17;;;;;;;6.70;5.97;;;11.80;83.90;;;;;;10408956;28;20305;-81
2023/04/14 18:40:20;;;;;;;5.63;4.70;;;11.60;85.40;;;;;;10383385;28;20223;-80
2023/04/14 18:45:22;;;;;;;7.40;5.07;;;11.50;85.70;;;;;;10415310;28;20206;-81
2023/04/14 18:50:26;;;;;;;4.83;3.90;;;11.50;83.70;;;;;;10404022;28;20591;-80
2023/04/14 18:55:28;;;;;;;4.60;4.20;;;11.30;84.10;;;;;;10410248;28;20616;-80
2023/04/14 19:00:32;;;;;;;6.87;4.17;;;11.20;84.40;;;;;;10374486;28;20254;-81
2023/04/14 19:05:36;;;;;;;5.80;4.50;;;11.10;85.40;;;;;;10368405;28;20246;-83
2023/04/14 19:10:38;;;;;;;5.87;4.87;;;10.90;84.30;;;;;;10418310;28;20313;-83
2023/04/14 19:15:41;;;;;;;7.07;5.50;;;10.80;85.30;;;;;;10422510;28;20269;-83
2023/04/14 19:20:46;;;;;;;6.17;5.10;;;10.80;85.20;;;;;;10392600;28;20238;-82
2023/04/14 19:25:49;;;;;;;6.33;5.20;;;10.60;86.90;;;;;;10402556;28;20199;-80
2023/04/14 19:30:51;;;;;;;6.00;4.30;;;10.40;87.10;;;;;;10428071;28;20214;-83
2023/04/14 19:35:59;;;;;;;3.57;3.27;;;10.40;87.50;;;;;;10389817;28;20213;-81
2023/04/14 19:41:05;;;;;;;4.97;3.63;;;10.30;88.80;;;;;;10388687;28;20726;-82
2023/04/14 19:46:12;;;;;;;7.17;5.23;;;10.30;90.00;;;;;;10422323;28;20667;-83
2023/04/14 19:51:17;;;;;;;6.87;5.47;;;10.20;90.20;;;;;;10380517;28;20601;-82
2023/04/14 19:56:19;;;;;;;6.53;5.83;;;10.10;90.40;;;;;;10384968;28;20199;-83
2023/04/14 20:01:22;;;;;;;7.70;7.00;;;10.10;91.30;;;;;;10417935;28;20249;-83
2023/04/14 20:06:26;;;;;;;5.83;5.30;;;10.00;91.40;;;;;;10423332;28;20285;-83
2023/04/14 20:11:29;;;;;;;6.03;4.90;;;10.00;91.60;;;;;;10369600;28;20233;-83
2023/04/14 20:16:31;;;;;;;6.03;5.40;;;10.00;91.60;;;;;;10371795;28;20199;-82
2023/04/14 20:21:35;;;;;;;11.50;7.30;;;9.90;92.30;;;;;;10408239;28;20469;-82
2023/04/14 20:26:41;;;;;;;8.33;6.07;;;9.80;92.30;;;;;;10375236;28;20474;-83
2023/04/14 20:31:43;;;;;;;10.73;9.57;;;9.70;94.00;;;;;;10361773;28;20219;-81
2023/04/14 20:36:49;;;;;;;12.63;6.80;;;9.80;93.20;;;;;;10383992;28;20235;-83
2023/04/14 20:41:51;;;;;;;8.13;6.80;;;9.70;93.60;;;;;;10384268;28;20691;-83
2023/04/14 20:46:54;;;;;;;10.90;5.90;;;9.70;93.90;;;;;;10380733;28;20209;-80
2023/04/14 20:51:59;;;;;;;7.70;5.47;;;9.70;93.40;;;;;;10404069;28;20611;-83
2023/04/14 20:57:02;;;;;;;8.20;7.13;;;9.60;93.50;;;;;;10387369;28;20198;-82
2023/04/14 21:02:04;;;;;;;11.20;6.90;;;9.50;93.70;;;;;;10409195;28;20309;-81
2023/04/14 21:07:09;;;;;;;8.20;5.97;;;9.50;94.60;;;;;;10379097;28;20218;-83
2023/04/14 21:12:12;;;;;;;23.57;19.17;;;9.40;94.30;;;;;;10411800;23;20227;-81
2023/04/14 21:17:14;;;;;;;20.60;18.17;;;9.40;95.80;;;;;;10423108;28;20292;-80
2023/04/14 21:22:17;;;;;;;6.00;4.83;;;9.40;96.10;;;;;;10431475;28;20224;-80
2023/04/14 21:27:20;;;;;;;5.67;4.67;;;9.50;95.40;;;;;;10430080;28;20568;-80
2023/04/14 21:32:22;;;;;;;5.93;4.00;;;9.50;94.90;;;;;;10431293;28;20692;-80
2023/04/14 21:37:26;;;;;;;6.67;4.20;;;9.40;95.10;;;;;;10430716;28;20208;-79
2023/04/14 21:42:28;;;;;;;4.20;3.80;;;9.30;95.00;;;;;;10430849;28;20234;-80
2023/04/14 21:47:30;;;;;;;5.83;3.20;;;9.30;95.10;;;;;;10429694;28;20203;-80
2023/04/14 21:52:34;;;;;;;5.77;3.60;;;9.20;95.10;;;;;;10430121;28;20210;-80
2023/04/14 21:57:36;;;;;;;4.13;3.40;;;9.20;95.50;;;;;;10428720;28;20203;-80
2023/04/14 22:02:39;;;;;;;6.20;3.60;;;9.10;95.00;;;;;;10429806;28;20221;-80
2023/04/14 22:07:44;;;;;;;5.70;3.40;;;9.10;96.10;;;;;;10429279;28;20265;-80
2023/04/14 22:12:46;;;;;;;3.87;3.57;;;9.10;95.80;;;;;;10414413;28;20225;-79
2023/04/14 22:17:49;;;;;;;6.50;3.60;;;9.00;96.20;;;;;;10430669;28;20214;-80
2023/04/14 22:22:53;;;;;;;4.70;3.50;;;9.00;96.20;;;;;;10431437;28;20212;-80
2023/04/14 22:27:55;;;;;;;4.00;3.60;;;9.00;96.40;;;;;;10437123;28;20205;-80
2023/04/14 22:32:57;;;;;;;5.43;4.00;;;9.00;95.50;;;;;;10411135;28;20288;-80
2023/04/14 22:38:00;;;;;;;7.87;3.90;;;8.90;95.90;;;;;;10431364;28;20201;-79
2023/04/14 22:43:07;;;;;;;4.43;3.87;;;8.80;95.60;;;;;;10429504;28;20222;-80
2023/04/14 22:48:10;;;;;;;5.47;3.07;;;8.80;95.80;;;;;;10430229;28;20199;-80
2023/04/14 22:53:16;;;;;;;3.97;3.50;;;8.70;96.30;;;;;;10428611;28;20237;-80
2023/04/14 22:58:20;;;;;;;4.60;3.23;;;8.60;96.10;;;;;;10428138;28;20707;-80
2023/04/14 23:03:22;;;;;;;49.30;34.00;;;8.50;96.90;;;;;;10412514;28;20256;-80
2023/04/14 23:08:26;;;;;;;3.90;3.60;;;8.60;97.10;;;;;;10428590;28;20288;-80
2023/04/14 23:13:28;;;;;;;3.60;3.20;;;8.60;96.90;;;;;;10428767;28;20276;-81
2023/04/14 23:18:30;;;;;;;4.57;3.37;;;8.50;97.30;;;;;;10428564;28;20608;-80
2023/04/14 23:23:34;;;;;;;3.97;3.53;;;8.50;97.50;;;;;;10411026;28;20283;-80
2023/04/14 23:28:36;;;;;;;4.30;3.40;;;8.50;97.60;;;;;;10427446;28;20204;-80
2023/04/14 23:33:38;;;;;;;5.13;3.73;;;8.50;97.70;;;;;;10417866;28;20574;-80
2023/04/14 23:38:42;;;;;;;4.00;3.50;;;8.50;97.90;;;;;;10446556;28;20225;-80
2023/04/14 23:43:44;;;;;;;6.67;3.90;;;8.50;97.50;;;;;;10410337;28;20312;-80
2023/04/14 23:48:46;;;;;;;4.40;3.60;;;8.40;98.30;;;;;;10386154;28;20200;-80
2023/04/14 23:53:50;;;;;;;3.60;3.30;;;8.40;98.10;;;;;;10378887;28;20213;-79
2023/04/14 23:58:52;;;;;;;7.40;3.70;;;8.40;97.40;;;;;;10374983;28;20203;-80
